Anchor Point, AK (99556)

10:25 PM AKDT on April 22, 2017 (GMT -0800)
Wilderness Greenhouse | | Change Station

Elev 335 ft 59.72 °N, 151.72 °W | Updated 1 minute ago

Rain
Rain
44.4 °F
Feels Like 44 °F
N
1.0
Wind Variable Wind from South

Today
High -- | Low -- °F
--% Chance of Precip.
Yesterday
High -- | Low -- °F
Precip. -- in
Pressure 29.75 in
Visibility 10.0 miles
Clouds Overcast 5500 ft
Windchill 44 °F
Dew Point 33 °F
Humidity 65%
Rainfall 0.00 in
Snow Depth Not available.
6:29 AM 9:43 PM
Waning Crescent, 14% visible
METAR PAHO 230553Z AUTO 06004KT 10SM OVC055 09/01 A2975 RMK SLP074 T00890011 10106 20083 55011 TSNO VIA AUTODIAL
Pressure 29.75 in
Visibility 10.0 miles
Clouds Overcast 5500 ft
Windchill 44 °F
Dew Point 33 °F
Humidity 65%
Rainfall 0.00 in
Snow Depth Not available.
6:29 AM 9:43 PM
Waning Crescent, 14% visible
METAR PAHO 230553Z AUTO 06004KT 10SM OVC055 09/01 A2975 RMK SLP074 T00890011 10106 20083 55011 TSNO VIA AUTODIAL

Get Severe Weather Alerts

Thanks for signing up!

Be on the lookout for a verification email in your inbox.

You'll start receiving the daily forecast at 8 AM.

×

10-Day Weather Forecast

Almanac

Astronomy

Apr. 22, 2017 Rise Set
Actual Time
Civil Twilight
Nautical Twilight
Astronomical Twilight
Moon
Length of Visible Light
Length of Day
Tomorrow will be .
, % of the Moon is Illuminated

Today's Extremes

State Highs State Lows

Community

WunderPhotos

WunderBlog® & News

Nearby

Air Quality

  Air Quality AQ Index Pollutant
Not available.

Snow Depth

Station Depth Elevation

Earthquake Activity

City Distance Mag. Time & Date
Minimum magnitude displayed is 2.5.

Coastal Water Temperatures

Place Temperature

Stations

Nearby Weather Stations

Station Location Temp. Windchill Dew Point Humidity Wind Precip. Elev Updated Type
                   

Watches & Warnings

There are currently no watches in effect.